Time;durP1;ratioP1;P1;durP2;ratioP2;P2;SDS_P1;SDS_P2;PMS_P1;PMS_P2;Temp;Humidity;BMP_temperature;BMP_pressure;BME280_temperature;BME280_humidity;BME280_pressure;Samples;Min_cycle;Max_cycle;Signal;HPM_P1;HPM_P2
2021/03/18 00:01:42;;;;;;;16.15;6.83;;;;;;;4.26;66.48;99750.72;1711109;82;21145;-47
2021/03/18 00:04:12;;;;;;;15.63;6.50;;;;;;;4.26;66.45;99749.87;1698986;82;21162;-43
2021/03/18 00:06:40;;;;;;;16.75;7.12;;;;;;;4.26;66.40;99747.23;1706520;82;21563;-46
2021/03/18 00:09:09;;;;;;;13.88;6.92;;;;;;;4.26;66.43;99751.19;1701442;82;21673;-48
2021/03/18 00:11:41;;;;;;;16.20;7.62;;;;;;;4.24;66.40;99751.25;1717984;82;21139;-52
2021/03/18 00:14:10;;;;;;;19.02;7.45;;;;;;;4.21;66.33;99750.50;1702263;82;21128;-46
2021/03/18 00:16:37;;;;;;;18.35;8.90;;;;;;;4.18;66.38;99753.28;1714044;82;21149;-45
2021/03/18 00:19:05;;;;;;;19.50;7.65;;;;;;;4.14;66.40;99748.62;1707130;82;21142;-45
2021/03/18 00:21:33;;;;;;;19.80;8.25;;;;;;;4.08;66.47;99748.42;1712751;82;21146;-45
2021/03/18 00:24:00;;;;;;;21.35;7.87;;;;;;;4.06;66.59;99746.78;1708649;82;21118;-44
2021/03/18 00:26:30;;;;;;;17.62;7.70;;;;;;;4.04;66.54;99748.63;1716077;82;21173;-45
2021/03/18 00:29:03;;;;;;;12.70;7.60;;;;;;;4.00;66.32;99746.55;1706004;82;21167;-45
2021/03/18 00:31:33;;;;;;;11.70;7.25;;;;;;;3.98;66.46;99747.55;1713140;82;21162;-45
2021/03/18 00:34:01;;;;;;;16.82;7.17;;;;;;;3.95;66.49;99758.23;1710206;82;21151;-49
2021/03/18 00:36:28;;;;;;;10.53;6.03;;;;;;;3.94;66.33;99754.75;1708346;82;21610;-52
2021/03/18 00:38:58;;;;;;;9.05;5.90;;;;;;;3.95;66.36;99747.69;1715896;82;21151;-50
2021/03/18 00:41:26;;;;;;;17.27;7.87;;;;;;;3.99;66.27;99751.92;1708259;82;21114;-48
2021/03/18 00:43:54;;;;;;;14.65;6.20;;;;;;;4.01;66.16;99755.36;1709735;82;21157;-50
2021/03/18 00:46:22;;;;;;;14.53;6.45;;;;;;;4.02;66.15;99757.06;1696741;82;21485;-47
2021/03/18 00:48:51;;;;;;;14.25;7.08;;;;;;;4.02;65.89;99752.62;1676837;84;21185;-50
2021/03/18 00:51:19;;;;;;;14.65;7.08;;;;;;;4.03;65.84;99750.84;1673681;84;21189;-50
2021/03/18 00:53:49;;;;;;;17.60;6.58;;;;;;;4.02;65.92;99753.95;1671596;84;21585;-47
2021/03/18 00:56:21;;;;;;;15.40;7.10;;;;;;;4.02;65.82;99750.00;1675452;84;21645;-48
2021/03/18 00:58:50;;;;;;;14.43;6.47;;;;;;;4.01;65.87;99753.56;1664834;84;21158;-44
2021/03/18 01:01:22;;;;;;;15.43;7.87;;;;;;;4.01;65.85;99752.72;1674071;84;21145;-48
2021/03/18 01:03:51;;;;;;;16.87;7.30;;;;;;;4.00;65.76;99746.55;1660377;85;21162;-49
2021/03/18 01:06:23;;;;;;;19.67;6.12;;;;;;;3.98;65.77;99750.19;1720923;81;21630;-46
2021/03/18 01:08:52;;;;;;;17.73;7.55;;;;;;;3.97;65.77;99745.84;1703805;82;21669;-54
2021/03/18 01:11:23;;;;;;;21.95;7.65;;;;;;;3.92;65.54;99746.03;1722851;82;21146;-53
2021/03/18 01:13:57;;;;;;;;;;;;;;;3.87;65.77;99744.05;1705173;82;21138;-50
2021/03/18 01:16:30;;;;;;;15.75;7.60;;;;;;;3.77;66.04;99744.05;1707516;82;20178;-52
2021/03/18 01:19:00;;;;;;;15.28;9.23;;;;;;;3.69;66.30;99738.62;1698612;82;21578;-50
2021/03/18 01:21:38;;;;;;;17.57;8.03;;;;;;;3.65;66.38;99737.50;1699020;82;21164;-50
2021/03/18 01:24:06;;;;;;;17.27;8.33;;;;;;;3.61;66.43;99734.14;1702157;82;21172;-49
2021/03/18 01:26:34;;;;;;;13.45;8.63;;;;;;;3.60;66.54;99733.77;1698772;82;22220;-48
2021/03/18 01:29:02;;;;;;;19.17;9.38;;;;;;;3.62;66.52;99731.05;1704888;82;21185;-51
2021/03/18 01:31:32;;;;;;;18.77;7.58;;;;;;;3.63;66.42;99732.78;1705947;82;21142;-50
2021/03/18 01:34:00;;;;;;;13.15;7.40;;;;;;;3.65;66.48;99738.38;1698479;82;21153;-51
2021/03/18 01:36:28;;;;;;;10.00;7.30;;;;;;;3.66;66.55;99733.49;1700987;82;21134;-48
2021/03/18 01:38:56;;;;;;;19.30;8.05;;;;;;;3.70;66.50;99732.89;1705039;82;21180;-50
2021/03/18 01:41:25;;;;;;;16.37;7.97;;;;;;;3.71;66.46;99728.50;1710662;81;21639;-49
2021/03/18 01:43:54;;;;;;;12.10;7.37;;;;;;;3.73;66.43;99729.27;1708075;82;21187;-50
2021/03/18 01:46:21;;;;;;;21.48;7.10;;;;;;;3.72;66.42;99734.16;1712733;82;21173;-49
2021/03/18 01:48:51;;;;;;;10.90;7.15;;;;;;;3.71;66.51;99734.63;1713857;82;21157;-50
2021/03/18 01:51:20;;;;;;;16.90;7.62;;;;;;;3.75;66.47;99736.66;1713983;82;21302;-45
2021/03/18 01:53:49;;;;;;;13.93;7.78;;;;;;;3.77;66.54;99733.50;1696071;82;21298;-43
2021/03/18 01:56:17;;;;;;;22.00;8.55;;;;;;;3.76;66.53;99735.28;1706339;82;21595;-41
2021/03/18 01:58:45;;;;;;;22.22;8.28;;;;;;;3.75;66.53;99739.30;1702925;82;21153;-53
2021/03/18 02:01:16;;;;;;;17.23;7.85;;;;;;;3.72;66.69;99740.75;1712118;82;21138;-48
2021/03/18 02:03:44;;;;;;;13.62;7.72;;;;;;;3.69;66.75;99737.31;1710841;82;21284;-48
2021/03/18 02:06:11;;;;;;;14.53;7.10;;;;;;;3.68;66.82;99732.97;1714088;82;21161;-49
2021/03/18 02:08:39;;;;;;;18.87;6.85;;;;;;;3.67;66.89;99743.11;1715142;82;21140;-48
2021/03/18 02:11:07;;;;;;;15.68;7.28;;;;;;;3.72;66.94;99740.28;1718810;82;21494;-47
2021/03/18 02:13:36;;;;;;;14.90;7.28;;;;;;;3.74;66.96;99736.27;1712079;82;21296;-44
2021/03/18 02:16:11;;;;;;;21.00;8.00;;;;;;;3.73;66.88;99731.91;1706278;82;21133;-41
2021/03/18 02:19:09;;;;;;;17.98;8.00;;;;;;;3.71;67.00;99735.09;1709891;82;21690;-45
2021/03/18 02:21:45;;;;;;;13.85;6.60;;;;;;;3.67;67.08;99739.15;1653834;85;21587;-44
2021/03/18 02:24:44;;;;;;;22.13;7.80;;;;;;;3.67;67.17;99739.62;1657631;85;21204;-44
2021/03/18 02:27:50;;;;;;;15.63;7.08;;;;;;;3.67;67.20;99737.83;1657793;85;21179;-46
2021/03/18 02:30:53;;;;;;;27.98;7.70;;;;;;;3.76;67.17;99742.34;1802731;78;23383;-49
2021/03/18 02:33:46;;;;;;;16.17;6.97;;;;;;;3.72;67.24;99735.47;1722011;81;21481;-43
2021/03/18 02:36:21;;;;;;;12.43;6.42;;;;;;;3.79;67.33;99740.89;1723763;81;21153;-49
2021/03/18 02:39:07;;;;;;;16.02;7.08;;;;;;;3.86;67.36;99733.97;1723706;81;21166;-45
2021/03/18 02:41:42;;;;;;;19.77;8.48;;;;;;;3.95;67.32;99747.69;1722310;81;21157;-46
2021/03/18 02:44:15;;;;;;;19.70;7.35;;;;;;;4.01;67.06;99756.20;1716795;81;21117;-50
2021/03/18 02:46:43;;;;;;;23.57;8.55;;;;;;;3.99;66.85;99753.23;1723188;81;21161;-45
2021/03/18 02:49:12;;;;;;;20.92;7.90;;;;;;;4.01;66.73;99760.16;1721934;81;21743;-47
2021/03/18 02:51:41;;;;;;;14.00;6.83;;;;;;;4.03;66.48;99765.36;1723402;81;21242;-46
2021/03/18 02:54:10;;;;;;;15.20;7.47;;;;;;;4.04;66.38;99761.34;1698664;83;21597;-47
2021/03/18 02:56:43;;;;;;;15.72;6.80;;;;;;;4.04;66.23;99761.34;1729453;81;21122;-46
2021/03/18 02:59:14;;;;;;;16.62;8.68;;;;;;;4.04;66.20;99767.09;1725429;81;21149;-44
2021/03/18 03:01:42;;;;;;;14.87;8.45;;;;;;;4.05;66.13;99767.47;1726375;81;21149;-43
2021/03/18 03:04:12;;;;;;;14.80;7.87;;;;;;;4.02;65.99;99767.61;1717380;81;21165;-44
2021/03/18 03:06:40;;;;;;;14.85;7.33;;;;;;;4.00;65.81;99767.66;1695519;80;21189;-43
2021/03/18 03:09:08;;;;;;;16.40;7.15;;;;;;;3.99;65.79;99771.70;1755951;80;21190;-45
2021/03/18 03:11:37;;;;;;;10.35;6.90;;;;;;;3.96;65.70;99771.84;1754733;80;21133;-49
2021/03/18 03:14:07;;;;;;;10.80;6.62;;;;;;;3.94;65.63;99770.58;1750801;80;21141;-43
2021/03/18 03:16:35;;;;;;;13.65;6.92;;;;;;;3.94;65.09;99768.41;1752330;80;21144;-43
2021/03/18 03:19:04;;;;;;;12.00;6.37;;;;;;;3.91;65.04;99779.95;1748357;81;21118;-43
2021/03/18 03:21:31;;;;;;;11.20;6.62;;;;;;;3.90;64.93;99775.11;1755223;80;21162;-43
2021/03/18 03:23:59;;;;;;;11.90;6.37;;;;;;;3.89;64.91;99769.45;1758667;80;21111;-44
2021/03/18 03:26:28;;;;;;;11.30;6.60;;;;;;;3.90;64.88;99772.47;1756233;80;21122;-48
2021/03/18 03:28:55;;;;;;;9.73;5.97;;;;;;;3.89;64.73;99771.23;1682269;83;21137;-44
2021/03/18 03:31:23;;;;;;;16.23;6.22;;;;;;;3.87;64.64;99767.80;1736597;81;21559;-45
2021/03/18 03:33:52;;;;;;;11.45;5.87;;;;;;;3.85;64.39;99778.87;1722011;81;21581;-46
2021/03/18 03:36:20;;;;;;;14.93;6.37;;;;;;;3.81;64.38;99777.30;1728407;81;21156;-46
2021/03/18 03:38:48;;;;;;;12.25;5.62;;;;;;;3.78;64.39;99791.48;1732880;81;21121;-45
2021/03/18 03:41:16;;;;;;;15.72;7.25;;;;;;;3.74;64.36;99799.10;1730749;81;21143;-44
2021/03/18 03:43:43;;;;;;;17.37;6.40;;;;;;;3.68;64.41;99796.73;1732004;81;21106;-43
2021/03/18 03:46:11;;;;;;;10.18;5.50;;;;;;;3.66;64.41;99794.14;1728885;81;21442;-42
2021/03/18 03:48:41;;;;;;;19.05;6.22;;;;;;;3.67;64.31;99796.31;1728189;81;21157;-45
2021/03/18 03:51:08;;;;;;;14.38;6.80;;;;;;;3.68;64.26;99797.58;1701603;82;21153;-48
2021/03/18 03:53:53;;;;;;;13.93;6.60;;;;;;;3.69;63.84;99797.97;1725354;81;21157;-46
2021/03/18 03:56:27;;;;;;;18.55;7.22;;;;;;;3.65;63.99;99798.16;1731801;81;21134;-44
2021/03/18 03:59:05;;;;;;;12.55;5.90;;;;;;;3.62;64.05;99800.45;1727072;81;21162;-40
2021/03/18 04:01:53;;;;;;;13.08;5.87;;;;;;;3.62;63.87;99801.77;1725348;81;21138;-42
2021/03/18 04:04:30;;;;;;;12.20;6.33;;;;;;;3.61;63.87;99800.06;1724972;81;21149;-46
2021/03/18 04:07:00;;;;;;;16.37;6.87;;;;;;;3.61;63.62;99800.06;1727576;81;21167;-46
2021/03/18 04:09:29;;;;;;;17.60;6.62;;;;;;;3.60;63.70;99809.34;1724638;81;21538;-45
2021/03/18 04:11:57;;;;;;;13.25;5.53;;;;;;;3.57;63.86;99798.93;1716825;81;21185;-46
2021/03/18 04:14:30;;;;;;;14.25;5.95;;;;;;;3.57;63.90;99810.80;1726761;81;21138;-45
2021/03/18 04:17:04;;;;;;;9.23;6.15;;;;;;;3.57;63.82;99805.05;1728540;81;21134;-48
2021/03/18 04:19:34;;;;;;;13.03;7.20;;;;;;;3.56;63.92;99815.22;1697705;82;21137;-44
2021/03/18 04:22:02;;;;;;;14.78;7.10;;;;;;;3.57;63.98;99808.16;1738474;81;21130;-46
2021/03/18 04:24:30;;;;;;;12.50;6.95;;;;;;;3.57;64.01;99806.84;1704740;82;21292;-45
2021/03/18 04:26:58;;;;;;;14.53;7.08;;;;;;;3.58;64.10;99810.75;1729850;81;21673;-45
2021/03/18 04:29:26;;;;;;;14.73;6.75;;;;;;;3.58;64.02;99812.06;1729841;81;21154;-43
2021/03/18 04:31:54;;;;;;;12.63;7.03;;;;;;;3.59;63.85;99820.83;1746305;80;21151;-52
2021/03/18 04:34:22;;;;;;;13.68;6.30;;;;;;;3.57;63.93;99814.28;1721215;81;21167;-44
2021/03/18 04:36:50;;;;;;;12.05;5.92;;;;;;;3.58;64.03;99817.34;1686574;83;21153;-43
2021/03/18 04:39:19;;;;;;;10.58;5.87;;;;;;;3.57;63.99;99814.28;1662034;84;21163;-44
2021/03/18 04:41:47;;;;;;;14.18;7.47;;;;;;;3.57;64.01;99814.28;1736279;81;21130;-41
2021/03/18 04:44:14;;;;;;;13.78;6.62;;;;;;;3.57;63.94;99818.23;1701694;82;21152;-41
2021/03/18 04:46:46;;;;;;;12.85;6.55;;;;;;;3.54;63.86;99822.79;1740041;81;21149;-44
2021/03/18 04:49:15;;;;;;;12.40;6.12;;;;;;;3.51;64.00;99823.77;1736111;80;21135;-43
2021/03/18 04:51:44;;;;;;;13.85;6.65;;;;;;;3.50;63.97;99824.67;1719447;80;21171;-45
2021/03/18 04:54:12;;;;;;;14.70;6.97;;;;;;;3.50;63.98;99827.77;1736305;80;21146;-43
2021/03/18 04:56:42;;;;;;;13.60;6.37;;;;;;;3.49;64.01;99830.02;1736841;81;21171;-44
2021/03/18 04:59:17;;;;;;;14.35;6.22;;;;;;;3.52;64.28;99834.70;1733728;81;21191;-44
2021/03/18 05:01:49;;;;;;;14.20;7.15;;;;;;;3.53;64.17;99827.64;1738112;80;22170;-44
2021/03/18 05:04:19;;;;;;;11.70;5.75;;;;;;;3.53;64.05;99831.59;1734085;81;21170;-41
2021/03/18 05:06:50;;;;;;;11.33;5.92;;;;;;;3.49;64.07;99836.15;1706116;82;21494;-42
2021/03/18 05:09:19;;;;;;;13.53;6.70;;;;;;;3.49;64.31;99841.42;1703162;82;21148;-44
2021/03/18 05:11:50;;;;;;;15.35;6.95;;;;;;;3.48;64.29;99844.98;1698570;82;22120;-41
2021/03/18 05:14:18;;;;;;;11.35;6.85;;;;;;;3.44;64.38;99846.87;1658926;84;21576;-44
2021/03/18 05:16:45;;;;;;;17.48;6.90;;;;;;;3.44;64.42;99851.29;1738895;80;21652;-42
2021/03/18 05:19:14;;;;;;;11.15;7.47;;;;;;;3.43;64.51;99847.80;1734262;80;21150;-41
2021/03/18 05:21:47;;;;;;;16.23;8.20;;;;;;;3.44;64.62;99850.83;1702516;82;21133;-47
2021/03/18 05:24:15;;;;;;;17.00;7.78;;;;;;;3.44;64.82;99848.66;1745456;80;21550;-43
2021/03/18 05:26:43;;;;;;;16.45;7.28;;;;;;;3.40;65.34;99848.36;1737580;81;21158;-44
2021/03/18 05:29:12;;;;;;;13.18;7.05;;;;;;;3.35;65.95;99853.84;1699677;82;21597;-43
2021/03/18 05:31:41;;;;;;;10.58;5.97;;;;;;;3.32;66.44;99855.72;1745157;80;21142;-43
2021/03/18 05:34:09;;;;;;;25.25;6.92;;;;;;;3.31;66.78;99862.77;1741226;80;21135;-44
2021/03/18 05:36:39;;;;;;;17.27;6.92;;;;;;;3.32;67.13;99860.98;1738014;80;21140;-46
2021/03/18 05:39:07;;;;;;;14.40;6.70;;;;;;;3.33;67.37;99866.21;1698585;82;21170;-42
2021/03/18 05:41:35;;;;;;;16.87;6.05;;;;;;;3.30;68.22;99861.50;1695178;83;21169;-44
2021/03/18 05:44:06;;;;;;;16.30;5.75;;;;;;;3.26;68.39;99876.58;1689007;83;21146;-43
2021/03/18 05:46:34;;;;;;;10.70;6.75;;;;;;;3.22;68.82;99871.87;1701444;83;21158;-45
2021/03/18 05:49:02;;;;;;;12.20;6.95;;;;;;;3.22;69.06;99871.02;1697058;83;21201;-42
2021/03/18 05:51:32;;;;;;;13.53;5.72;;;;;;;3.22;69.15;99873.19;1687138;82;21170;-51
2021/03/18 05:54:02;;;;;;;11.57;5.95;;;;;;;3.26;69.37;99875.27;1691256;83;21149;-41
2021/03/18 05:56:30;;;;;;;8.18;5.58;;;;;;;3.30;69.34;99875.56;1664429;83;21284;-42
2021/03/18 05:58:59;;;;;;;9.38;6.78;;;;;;;3.35;69.50;99876.67;1667853;83;21182;-42
2021/03/18 06:01:28;;;;;;;11.05;6.35;;;;;;;3.39;69.32;99876.97;1688915;82;21640;-43
2021/03/18 06:03:57;;;;;;;15.13;7.92;;;;;;;3.44;69.44;99881.14;1692109;83;21561;-42
2021/03/18 06:06:26;;;;;;;13.05;7.62;;;;;;;3.49;69.41;99880.12;1739421;80;21589;-47
2021/03/18 06:08:54;;;;;;;15.88;6.15;;;;;;;3.52;69.17;99882.62;1734444;81;21526;-43
2021/03/18 06:11:21;;;;;;;14.18;7.47;;;;;;;3.58;68.93;99886.33;1735931;81;21127;-43
2021/03/18 06:13:51;;;;;;;12.82;6.45;;;;;;;3.60;68.66;99886.70;1705365;82;21617;-44
2021/03/18 06:16:20;;;;;;;13.13;6.75;;;;;;;3.61;68.61;99887.09;1734970;80;21155;-44
2021/03/18 06:18:48;;;;;;;20.17;7.45;;;;;;;3.63;68.09;99893.16;1737283;81;21108;-43
2021/03/18 06:21:16;;;;;;;18.30;8.83;;;;;;;3.63;67.97;99894.95;1742608;80;21150;-45
2021/03/18 06:24:01;;;;;;;13.35;7.58;;;;;;;3.64;67.10;99893.55;1739934;81;21173;-41
2021/03/18 06:26:35;;;;;;;19.42;8.68;;;;;;;3.66;67.05;99897.46;1703638;82;21170;-44
2021/03/18 06:29:28;;;;;;;20.90;8.38;;;;;;;3.71;67.24;99902.56;1738165;81;21182;-45
2021/03/18 06:31:57;;;;;;;15.05;7.30;;;;;;;3.73;67.79;99905.97;1735195;80;21132;-44
2021/03/18 06:34:54;;;;;;;19.42;7.10;;;;;;;3.72;68.03;99900.31;1717917;81;21170;-45
2021/03/18 06:37:46;;;;;;;17.07;7.30;;;;;;;3.67;68.32;99899.16;1732394;80;21178;-43
2021/03/18 06:40:24;;;;;;;20.40;8.45;;;;;;;3.64;68.53;99900.61;1735454;81;21158;-40
2021/03/18 06:43:00;;;;;;;18.55;8.95;;;;;;;3.66;68.46;99905.38;1701413;82;21673;-42
2021/03/18 06:45:38;;;;;;;23.07;9.60;;;;;;;3.68;68.65;99903.54;1739148;80;21567;-42
2021/03/18 06:48:14;;;;;;;27.13;9.63;;;;;;;3.75;68.50;99902.82;1804207;78;23410;-43
2021/03/18 06:50:44;;;;;;;20.63;8.10;;;;;;;3.72;68.77;99905.58;1778339;80;21133;-45
2021/03/18 06:53:26;;;;;;;15.90;6.70;;;;;;;3.75;69.34;99909.41;1770589;79;21172;-46
2021/03/18 06:55:55;;;;;;;16.77;7.95;;;;;;;3.77;69.35;99907.11;1769059;79;21129;-46
2021/03/18 06:58:28;;;;;;;20.60;7.92;;;;;;;3.84;69.39;99905.95;1769896;79;21495;-43
2021/03/18 07:01:00;;;;;;;17.57;6.37;;;;;;;3.88;69.16;99907.56;1772629;79;21149;-42
2021/03/18 07:03:36;;;;;;;16.20;8.43;;;;;;;3.94;69.16;99909.55;1773614;79;21130;-43
2021/03/18 07:06:09;;;;;;;14.43;7.95;;;;;;;3.97;69.06;99906.78;1712419;81;21180;-47
2021/03/18 07:08:39;;;;;;;13.18;7.37;;;;;;;3.99;68.99;99910.23;1672852;83;21192;-48
2021/03/18 07:11:22;;;;;;;13.45;7.30;;;;;;;4.02;69.19;99908.31;1687179;83;21193;-46
2021/03/18 07:13:51;;;;;;;15.65;8.63;;;;;;;4.03;69.36;99909.16;1687190;83;21157;-44
2021/03/18 07:16:18;;;;;;;15.65;8.38;;;;;;;3.93;69.98;99914.41;1689853;83;21185;-46
2021/03/18 07:18:56;;;;;;;15.32;8.28;;;;;;;3.88;70.28;99907.56;1710441;82;21986;-46
2021/03/18 07:21:40;;;;;;;15.32;7.30;;;;;;;3.87;70.30;99912.42;1684332;83;21170;-43
2021/03/18 07:24:37;;;;;;;16.40;7.37;;;;;;;3.89;70.29;99913.22;1688720;83;21673;-41
2021/03/18 07:27:15;;;;;;;12.78;7.90;;;;;;;3.96;70.09;99912.53;1709944;82;21150;-46
2021/03/18 07:29:47;;;;;;;11.33;6.85;;;;;;;4.02;70.03;99912.27;1711053;82;21161;-45
2021/03/18 07:32:14;;;;;;;;;;;;;;;4.07;69.93;99908.98;1689538;83;21294;-49
2021/03/18 07:34:43;;;;;;;13.13;7.78;;;;;;;4.14;69.99;99914.88;1684669;83;20185;-42
2021/03/18 07:37:12;;;;;;;15.05;8.33;;;;;;;4.19;69.83;99914.23;1677251;83;21311;-49
2021/03/18 07:39:44;;;;;;;18.62;9.70;;;;;;;4.25;69.63;99914.43;1686575;83;21157;-47
2021/03/18 07:42:12;;;;;;;18.42;8.58;;;;;;;4.25;69.50;99910.47;1686705;83;21757;-44
2021/03/18 07:44:42;;;;;;;17.00;9.60;;;;;;;4.26;69.55;99913.06;1687063;83;21158;-45
2021/03/18 07:47:43;;;;;;;22.95;9.83;;;;;;;4.30;69.93;99912.45;1675109;83;21621;-44
2021/03/18 07:50:39;;;;;;;18.27;9.63;;;;;;;4.44;69.95;99906.15;1918163;73;23007;-43
2021/03/18 07:53:10;;;;;;;19.20;10.08;;;;;;;4.50;69.52;99910.30;1826302;76;21111;-43
2021/03/18 07:55:38;;;;;;;15.08;9.68;;;;;;;4.58;69.15;99910.83;1870504;74;21118;-47
2021/03/18 07:58:07;;;;;;;21.73;9.75;;;;;;;4.67;68.89;99903.84;1877328;74;21112;-45
2021/03/18 08:00:41;;;;;;;18.82;10.80;;;;;;;4.73;68.38;99899.59;1874243;74;21113;-42
2021/03/18 08:03:25;;;;;;;20.55;10.15;;;;;;;4.83;68.28;99901.85;1827652;75;21086;-50
2021/03/18 08:05:53;;;;;;;29.52;12.75;;;;;;;4.91;67.58;99908.97;1801292;77;21175;-44
2021/03/18 08:08:35;;;;;;;27.48;10.48;;;;;;;4.94;66.96;99899.61;1841510;75;21133;-48
2021/03/18 08:11:10;;;;;;;24.60;10.68;;;;;;;4.93;66.95;99907.98;1838032;76;21094;-49
2021/03/18 08:13:41;;;;;;;26.33;11.48;;;;;;;4.91;66.16;99907.65;1839765;76;21153;-49
2021/03/18 08:16:29;;;;;;;17.27;11.35;;;;;;;4.94;66.47;99913.67;1839198;76;21153;-49
2021/03/18 08:18:58;;;;;;;20.20;10.05;;;;;;;4.94;66.88;99909.70;1840343;76;21122;-50
2021/03/18 08:21:53;;;;;;;16.35;9.83;;;;;;;4.93;67.45;99909.77;1839738;76;21124;-49
2021/03/18 08:24:27;;;;;;;19.90;9.80;;;;;;;4.90;67.65;99909.91;1840499;76;21672;-47
2021/03/18 08:27:06;;;;;;;15.90;9.00;;;;;;;4.83;67.97;99913.27;1753130;78;21312;-49
2021/03/18 08:29:45;;;;;;;20.75;10.90;;;;;;;4.82;68.42;99916.84;1771414;79;21154;-48
2021/03/18 08:32:27;;;;;;;17.92;10.65;;;;;;;4.83;68.17;99917.23;1771809;78;21157;-49
2021/03/18 08:34:59;;;;;;;16.40;9.88;;;;;;;4.84;68.12;99908.84;1774787;78;21477;-44
2021/03/18 08:37:43;;;;;;;19.82;10.05;;;;;;;4.81;68.45;99918.22;1780263;78;21136;-45
2021/03/18 08:40:23;;;;;;;21.33;11.30;;;;;;;4.78;68.15;99916.11;1839608;76;21503;-39
2021/03/18 08:42:51;;;;;;;17.60;10.15;;;;;;;4.75;67.91;99916.72;1841929;76;21083;-43
2021/03/18 08:45:24;;;;;;;19.70;11.03;;;;;;;4.70;67.92;99910.77;1841424;76;22095;-45
2021/03/18 08:47:55;;;;;;;17.37;10.48;;;;;;;4.66;67.90;99913.14;1842590;76;21146;-41
2021/03/18 08:50:29;;;;;;;23.12;10.40;;;;;;;4.63;67.99;99928.66;1839371;76;21150;-44
2021/03/18 08:52:57;;;;;;;20.12;10.35;;;;;;;4.58;68.33;99924.03;1836632;76;21098;-45
2021/03/18 08:55:36;;;;;;;17.32;11.83;;;;;;;4.58;67.97;99924.03;1839666;76;21553;-42
2021/03/18 08:58:06;;;;;;;19.37;10.32;;;;;;;4.55;67.68;99922.85;1834573;76;21126;-46
2021/03/18 09:00:36;;;;;;;23.55;9.90;;;;;;;4.49;68.02;99930.58;1838872;76;21142;-46
2021/03/18 09:03:07;;;;;;;16.73;9.10;;;;;;;4.46;68.15;99927.19;1835872;76;21126;-46
2021/03/18 09:05:38;;;;;;;16.07;8.95;;;;;;;4.43;68.40;99922.04;1837144;76;21175;-43
2021/03/18 09:08:07;;;;;;;16.15;9.43;;;;;;;4.43;68.51;99923.36;1773807;79;21102;-47
2021/03/18 09:10:38;;;;;;;18.05;10.43;;;;;;;4.43;68.37;99918.94;1798571;78;21119;-43
2021/03/18 09:13:15;;;;;;;18.95;10.40;;;;;;;4.44;68.35;99918.03;1779355;79;21110;-42
2021/03/18 09:15:45;;;;;;;22.15;9.73;;;;;;;4.47;68.12;99917.89;1842688;75;21133;-46
2021/03/18 09:18:25;;;;;;;14.23;9.60;;;;;;;4.50;67.83;99920.87;1789435;78;21434;-47
2021/03/18 09:21:08;;;;;;;19.15;9.95;;;;;;;4.54;67.59;99922.00;1792515;78;21169;-44
2021/03/18 09:23:37;;;;;;;16.27;8.65;;;;;;;4.58;66.55;99918.75;1786250;78;21138;-45
2021/03/18 09:26:08;;;;;;;13.68;8.35;;;;;;;4.62;66.42;99913.75;1785909;78;21114;-47
2021/03/18 09:28:42;;;;;;;15.48;9.10;;;;;;;4.68;66.34;99908.66;1792006;78;21137;-46
2021/03/18 09:31:38;;;;;;;20.90;8.90;;;;;;;4.81;66.47;99905.02;1795220;78;22924;-46
2021/03/18 09:34:06;;;;;;;14.00;8.88;;;;;;;4.85;66.10;99907.93;1768360;80;21120;-44
2021/03/18 09:36:35;;;;;;;13.65;7.90;;;;;;;4.90;65.97;99909.44;1772816;79;21144;-44
2021/03/18 09:39:09;;;;;;;16.62;8.90;;;;;;;4.95;65.37;99906.12;1768469;79;21182;-42
2021/03/18 09:41:46;;;;;;;13.22;7.90;;;;;;;4.96;64.64;99910.51;1775555;79;21113;-50
2021/03/18 09:44:20;;;;;;;16.57;7.97;;;;;;;4.98;64.65;99915.70;1763307;79;21161;-46
2021/03/18 09:47:03;;;;;;;14.60;8.13;;;;;;;4.95;64.70;99914.53;1766994;79;21129;-47
2021/03/18 09:49:40;;;;;;;15.35;8.13;;;;;;;4.94;64.95;99915.47;1771142;79;21173;-49
2021/03/18 09:52:10;;;;;;;14.38;8.25;;;;;;;4.97;64.44;99918.81;1758214;79;21160;-47
2021/03/18 09:54:38;;;;;;;12.70;8.33;;;;;;;5.02;63.35;99916.45;1748811;79;21164;-42
2021/03/18 09:57:08;;;;;;;12.05;6.42;;;;;;;5.05;63.42;99915.83;1705165;81;21157;-42
2021/03/18 09:59:36;;;;;;;13.08;6.97;;;;;;;5.08;63.28;99922.30;1730562;81;21197;-43
2021/03/18 10:02:05;;;;;;;15.20;7.35;;;;;;;5.11;63.17;99916.86;1708323;82;21175;-50
2021/03/18 10:04:42;;;;;;;12.40;6.03;;;;;;;5.14;62.34;99919.39;1699142;83;21169;-47
2021/03/18 10:07:11;;;;;;;10.55;6.00;;;;;;;5.13;61.99;99918.98;1693005;82;21207;-45
2021/03/18 10:09:42;;;;;;;12.15;6.25;;;;;;;5.10;60.59;99920.92;1713330;82;21159;-46
2021/03/18 10:12:14;;;;;;;12.07;5.70;;;;;;;5.10;60.63;99921.77;1709252;83;21169;-49
2021/03/18 10:14:55;;;;;;;11.48;5.90;;;;;;;5.13;60.89;99920.77;1728229;81;21194;-48
2021/03/18 10:17:31;;;;;;;14.33;5.37;;;;;;;5.19;60.96;99927.98;1674059;83;21314;-46
2021/03/18 10:20:28;;;;;;;14.28;6.22;;;;;;;5.25;60.95;99924.66;1730842;81;21137;-41
2021/03/18 10:23:06;;;;;;;10.13;5.28;;;;;;;5.26;60.91;99920.61;1718069;81;21177;-41
2021/03/18 10:25:36;;;;;;;12.88;6.20;;;;;;;5.29;59.72;99915.20;1703989;82;21735;-45
2021/03/18 10:28:10;;;;;;;14.55;5.70;;;;;;;5.30;59.66;99919.55;1723823;81;21587;-43
2021/03/18 10:30:48;;;;;;;13.90;7.35;;;;;;;5.27;59.91;99923.66;1709256;81;21328;-43
2021/03/18 10:33:23;;;;;;;12.45;5.95;;;;;;;5.25;59.47;99923.34;1684551;83;21171;-41
2021/03/18 10:35:59;;;;;;;13.32;6.67;;;;;;;5.22;58.99;99920.38;1698432;83;21806;-46
2021/03/18 10:38:39;;;;;;;12.58;5.95;;;;;;;5.13;58.90;99923.41;1719159;81;22067;-40
2021/03/18 10:41:11;;;;;;;16.10;5.60;;;;;;;5.12;58.97;99919.07;1727854;81;21156;-42
2021/03/18 10:43:45;;;;;;;13.60;6.20;;;;;;;5.18;58.92;99928.03;1699061;82;21602;-46
2021/03/18 10:46:17;;;;;;;8.23;5.47;;;;;;;5.26;59.33;99929.01;1737971;81;21177;-43
2021/03/18 10:51:25;;;;;;;11.22;5.35;;;;;;;5.40;57.85;99926.13;1795180;78;23129;-46
2021/03/18 10:53:53;;;;;;;15.65;5.60;;;;;;;5.35;57.86;99924.63;1765777;79;21657;-48
2021/03/18 10:56:25;;;;;;;9.25;4.62;;;;;;;5.35;57.52;99927.28;1765986;79;21148;-47
2021/03/18 10:58:54;;;;;;;14.75;5.10;;;;;;;5.36;57.23;99929.83;1732362;81;21165;-45
2021/03/18 11:01:25;;;;;;;7.78;4.17;;;;;;;5.39;57.39;99930.16;1715938;82;21145;-46
2021/03/18 11:04:03;;;;;;;10.72;4.72;;;;;;;5.43;56.83;99929.10;1691956;83;21165;-48
2021/03/18 11:06:31;;;;;;;9.78;5.37;;;;;;;5.48;56.67;99927.10;1702210;83;21177;-44
2021/03/18 11:09:00;;;;;;;12.80;4.83;;;;;;;5.53;55.45;99922.45;1692892;83;21199;-42
2021/03/18 11:11:30;;;;;;;12.65;3.92;;;;;;;5.57;56.17;99929.80;1691545;83;21178;-48
2021/03/18 11:14:10;;;;;;;8.70;4.20;;;;;;;5.60;55.51;99927.86;1687364;83;21162;-47
2021/03/18 11:16:39;;;;;;;11.20;4.47;;;;;;;5.64;55.70;99928.12;1693258;83;21122;-42
2021/03/18 11:19:11;;;;;;;10.10;4.12;;;;;;;5.69;55.24;99929.20;1692034;83;21585;-44
2021/03/18 11:21:41;;;;;;;;;;;;;;;5.71;54.85;99929.14;1697323;83;21149;-43
2021/03/18 11:24:16;;;;;;;13.25;5.17;;;;;;;5.71;54.78;99924.70;1695912;83;20193;-43
2021/03/18 11:26:58;;;;;;;10.30;4.60;;;;;;;5.73;54.90;99925.97;1699082;83;21176;-42
2021/03/18 11:29:31;;;;;;;9.93;5.08;;;;;;;5.74;54.92;99923.70;1694691;83;21169;-45
2021/03/18 11:32:01;;;;;;;14.18;5.05;;;;;;;5.75;55.57;99922.31;1715857;81;21337;-45
2021/03/18 11:34:33;;;;;;;16.67;5.08;;;;;;;5.79;55.49;99921.69;1717578;81;21158;-45
2021/03/18 11:37:10;;;;;;;9.48;4.55;;;;;;;5.82;55.95;99921.54;1691917;83;21169;-42
2021/03/18 11:39:39;;;;;;;8.80;4.03;;;;;;;5.85;55.93;99922.74;1690428;83;22004;-44
2021/03/18 11:42:07;;;;;;;10.28;4.75;;;;;;;5.90;55.74;99920.73;1693315;83;21164;-45
2021/03/18 11:44:35;;;;;;;9.03;4.80;;;;;;;5.92;56.04;99920.20;1696759;83;21187;-56
2021/03/18 11:47:08;;;;;;;12.53;4.50;;;;;;;5.94;56.58;99924.96;1692079;84;21610;-45
2021/03/18 11:49:41;;;;;;;8.58;4.87;;;;;;;5.92;56.26;99918.88;1690920;83;21561;-55
2021/03/18 11:52:10;;;;;;;11.08;4.75;;;;;;;5.89;55.55;99925.61;1683458;85;21169;-47
2021/03/18 11:54:38;;;;;;;7.10;4.85;;;;;;;5.88;55.70;99925.70;1684659;83;21158;-45
2021/03/18 11:57:06;;;;;;;9.68;4.78;;;;;;;5.94;55.81;99922.78;1685567;83;21645;-44
2021/03/18 11:59:34;;;;;;;13.62;4.20;;;;;;;5.94;55.13;99922.31;1683539;83;21169;-46
2021/03/18 12:02:03;;;;;;;14.07;5.35;;;;;;;5.95;55.11;99924.05;1681668;83;21162;-43